EWG5XV EDDL-EDDH
Flight info
| Callsign | EWG5XV |
|---|---|
| Flight time | 0h 43m |
| Altitude | 35000 |
| Route | MEVEL4T MEVEL Y850 BASUM/N0441F340 Y850 PIXUR/N0441F330 Y850 MUBZI M105 RIBSO RIBSO3P |
| Aircraft | A319/M-SDE3FGHIRWY/LB1 |
Departure
| Time | 2026-05-04 22:32 |
|---|---|
| Airport | Düsseldorf Airport (EDDL) |
Arrival
| Time | 2026-05-04 23:15 |
|---|---|
| Airport | Hamburg Helmut Schmidt Airport (EDDH) |
| Time | Latitude | Longitude | Altitude | Speed | Heading |
|---|---|---|---|---|---|
| 2026-05-04 22:15 | 51.28111 | 6.76519 | 131 ft | 0 kts | 95° |
| 2026-05-04 22:23 | 51.28113 | 6.76490 | 126 ft | 4 kts | 90° |
| 2026-05-04 22:23 | 51.28110 | 6.76447 | 131 ft | 4 kts | 68° |
| 2026-05-04 22:23 | 51.28096 | 6.76419 | 131 ft | 2 kts | 4° |
| 2026-05-04 22:24 | 51.28094 | 6.76418 | 131 ft | 0 kts | 2° |
| 2026-05-04 22:27 | 51.28098 | 6.76419 | 131 ft | 2 kts | 2° |
| 2026-05-04 22:27 | 51.28136 | 6.76422 | 132 ft | 10 kts | 6° |
| 2026-05-04 22:27 | 51.28243 | 6.76458 | 132 ft | 21 kts | 42° |
| 2026-05-04 22:27 | 51.28369 | 6.76522 | 133 ft | 19 kts | 44° |
| 2026-05-04 22:28 | 51.28423 | 6.76632 | 134 ft | 19 kts | 54° |
| 2026-05-04 22:28 | 51.28500 | 6.76796 | 139 ft | 17 kts | 51° |
| 2026-05-04 22:28 | 51.28573 | 6.76948 | 140 ft | 17 kts | 53° |
| 2026-05-04 22:28 | 51.28647 | 6.77096 | 142 ft | 17 kts | 51° |
| 2026-05-04 22:29 | 51.28725 | 6.77254 | 140 ft | 19 kts | 54° |
| 2026-05-04 22:29 | 51.28805 | 6.77429 | 140 ft | 20 kts | 53° |
| 2026-05-04 22:29 | 51.28894 | 6.77609 | 141 ft | 20 kts | 51° |
| 2026-05-04 22:29 | 51.28981 | 6.77787 | 143 ft | 20 kts | 53° |
| 2026-05-04 22:30 | 51.29059 | 6.77962 | 146 ft | 19 kts | 54° |
| 2026-05-04 22:30 | 51.29144 | 6.78143 | 146 ft | 20 kts | 52° |
| 2026-05-04 22:30 | 51.29255 | 6.78190 | 148 ft | 18 kts | 323° |
| 2026-05-04 22:30 | 51.29296 | 6.78018 | 149 ft | 18 kts | 254° |
| 2026-05-04 22:31 | 51.29221 | 6.77846 | 147 ft | 20 kts | 231° |
| 2026-05-04 22:31 | 51.29126 | 6.77647 | 145 ft | 37 kts | 232° |
| 2026-05-04 22:31 | 51.28783 | 6.76935 | 142 ft | 117 kts | 232° |
| 2026-05-04 22:31 | 51.28176 | 6.75660 | 268 ft | 162 kts | 233° |
| 2026-05-04 22:32 | 51.27512 | 6.74260 | 1047 ft | 156 kts | 232° |
| 2026-05-04 22:32 | 51.26893 | 6.72816 | 1698 ft | 167 kts | 245° |
| 2026-05-04 22:32 | 51.26811 | 6.70875 | 2189 ft | 187 kts | 282° |
| 2026-05-04 22:32 | 51.27574 | 6.69151 | 2878 ft | 201 kts | 322° |
| 2026-05-04 22:33 | 51.28927 | 6.68485 | 3635 ft | 208 kts | 353° |
| 2026-05-04 22:33 | 51.30423 | 6.68609 | 4165 ft | 227 kts | 2° |
| 2026-05-04 22:33 | 51.32089 | 6.68811 | 4654 ft | 252 kts | 2° |
| 2026-05-04 22:33 | 51.33901 | 6.69018 | 5334 ft | 270 kts | 2° |
| 2026-05-04 22:34 | 51.35826 | 6.69222 | 6158 ft | 281 kts | 2° |
| 2026-05-04 22:34 | 51.37719 | 6.69445 | 7165 ft | 283 kts | 2° |
| 2026-05-04 22:34 | 51.39693 | 6.69683 | 8173 ft | 287 kts | 1° |
| 2026-05-04 22:34 | 51.41714 | 6.69777 | 9078 ft | 293 kts | 358° |
| 2026-05-04 22:35 | 51.43773 | 6.69753 | 10011 ft | 299 kts | 357° |
| 2026-05-04 22:35 | 51.45917 | 6.69693 | 10530 ft | 320 kts | 357° |
| 2026-05-04 22:35 | 51.48221 | 6.69636 | 10875 ft | 344 kts | 358° |
| 2026-05-04 22:35 | 51.50688 | 6.69598 | 11315 ft | 361 kts | 358° |
| 2026-05-04 22:36 | 51.53230 | 6.69586 | 12061 ft | 367 kts | 359° |
| 2026-05-04 22:36 | 51.55795 | 6.69592 | 12866 ft | 372 kts | 359° |
| 2026-05-04 22:36 | 51.58390 | 6.70033 | 13657 ft | 378 kts | 11° |
| 2026-05-04 22:36 | 51.60899 | 6.71372 | 14358 ft | 383 kts | 24° |
| 2026-05-04 22:37 | 51.63207 | 6.73571 | 15023 ft | 389 kts | 37° |
| 2026-05-04 22:37 | 51.65186 | 6.76564 | 15684 ft | 394 kts | 50° |
| 2026-05-04 22:37 | 51.66845 | 6.80100 | 16340 ft | 398 kts | 54° |
| 2026-05-04 22:37 | 51.68498 | 6.83723 | 16993 ft | 403 kts | 54° |
| 2026-05-04 22:38 | 51.70165 | 6.87375 | 17658 ft | 408 kts | 54° |
| 2026-05-04 22:38 | 51.71866 | 6.91088 | 18316 ft | 413 kts | 54° |
| 2026-05-04 22:38 | 51.73584 | 6.94832 | 18896 ft | 418 kts | 54° |
| 2026-05-04 22:38 | 51.75318 | 6.98617 | 19484 ft | 422 kts | 54° |
| 2026-05-04 22:39 | 51.77075 | 7.02459 | 20083 ft | 426 kts | 54° |
| 2026-05-04 22:39 | 51.78838 | 7.06329 | 20661 ft | 430 kts | 54° |
| 2026-05-04 22:39 | 51.80619 | 7.10245 | 21230 ft | 434 kts | 54° |
| 2026-05-04 22:39 | 51.82388 | 7.14144 | 21775 ft | 438 kts | 54° |
| 2026-05-04 22:40 | 51.84193 | 7.18120 | 22305 ft | 442 kts | 54° |
| 2026-05-04 22:40 | 51.86144 | 7.22076 | 22839 ft | 446 kts | 47° |
| 2026-05-04 22:40 | 51.88267 | 7.25667 | 23340 ft | 450 kts | 46° |
| 2026-05-04 22:40 | 51.90440 | 7.29327 | 23795 ft | 453 kts | 46° |
| 2026-05-04 22:41 | 51.92642 | 7.33033 | 24218 ft | 457 kts | 46° |
| 2026-05-04 22:41 | 51.94849 | 7.36758 | 24621 ft | 461 kts | 46° |
| 2026-05-04 22:41 | 51.97080 | 7.40535 | 25029 ft | 465 kts | 46° |
| 2026-05-04 22:41 | 51.99313 | 7.44329 | 25435 ft | 468 kts | 46° |
| 2026-05-04 22:42 | 52.01570 | 7.48177 | 25827 ft | 471 kts | 46° |
| 2026-05-04 22:42 | 52.03838 | 7.52046 | 26239 ft | 475 kts | 46° |
| 2026-05-04 22:42 | 52.06125 | 7.55951 | 26630 ft | 478 kts | 46° |
| 2026-05-04 22:42 | 52.08425 | 7.59884 | 27022 ft | 482 kts | 46° |
| 2026-05-04 22:43 | 52.10745 | 7.63850 | 27398 ft | 485 kts | 46° |
| 2026-05-04 22:43 | 52.13097 | 7.67824 | 27762 ft | 489 kts | 46° |
| 2026-05-04 22:43 | 52.15475 | 7.71793 | 28125 ft | 492 kts | 46° |
| 2026-05-04 22:43 | 52.17883 | 7.75784 | 28478 ft | 495 kts | 45° |
| 2026-05-04 22:44 | 52.20298 | 7.79800 | 28830 ft | 498 kts | 46° |
| 2026-05-04 22:44 | 52.22717 | 7.83878 | 29187 ft | 501 kts | 46° |
| 2026-05-04 22:44 | 52.25129 | 7.87996 | 29517 ft | 504 kts | 47° |
| 2026-05-04 22:44 | 52.27553 | 7.92166 | 29851 ft | 507 kts | 47° |
| 2026-05-04 22:45 | 52.29979 | 7.96353 | 30257 ft | 507 kts | 47° |
| 2026-05-04 22:45 | 52.34824 | 8.04714 | 31079 ft | 506 kts | 47° |
| 2026-05-04 22:45 | 52.37239 | 8.08886 | 31505 ft | 505 kts | 47° |
| 2026-05-04 22:46 | 52.39651 | 8.13056 | 31917 ft | 505 kts | 47° |
| 2026-05-04 22:46 | 52.42061 | 8.17220 | 32329 ft | 505 kts | 47° |
| 2026-05-04 22:46 | 52.44455 | 8.21361 | 32752 ft | 504 kts | 47° |
| 2026-05-04 22:46 | 52.46897 | 8.25599 | 33179 ft | 504 kts | 47° |
| 2026-05-04 22:47 | 52.49268 | 8.29721 | 33615 ft | 503 kts | 47° |
| 2026-05-04 22:47 | 52.51666 | 8.33900 | 34036 ft | 503 kts | 47° |
| 2026-05-04 22:47 | 52.54061 | 8.38082 | 34429 ft | 502 kts | 47° |
| 2026-05-04 22:47 | 52.56475 | 8.42308 | 34813 ft | 501 kts | 47° |
| 2026-05-04 22:48 | 52.58826 | 8.46426 | 34944 ft | 500 kts | 47° |
| 2026-05-04 22:48 | 52.61233 | 8.50645 | 34975 ft | 498 kts | 47° |
| 2026-05-04 22:48 | 52.65937 | 8.58923 | 34973 ft | 498 kts | 47° |
| 2026-05-04 22:49 | 52.70660 | 8.67259 | 34976 ft | 498 kts | 47° |
| 2026-05-04 22:49 | 52.76102 | 8.74277 | 34983 ft | 497 kts | 27° |
| 2026-05-04 22:50 | 52.82538 | 8.78112 | 34992 ft | 492 kts | 7° |
| 2026-05-04 22:50 | 52.89313 | 8.78755 | 34997 ft | 486 kts | 355° |
| 2026-05-04 22:51 | 52.96076 | 8.78774 | 34998 ft | 487 kts | 360° |
| 2026-05-04 22:51 | 53.02828 | 8.80194 | 34997 ft | 489 kts | 5° |
| 2026-05-04 22:52 | 53.06156 | 8.80960 | 34882 ft | 477 kts | 4° |
| 2026-05-04 22:52 | 53.09417 | 8.81704 | 34504 ft | 470 kts | 4° |
| 2026-05-04 22:52 | 53.12640 | 8.82434 | 34030 ft | 466 kts | 4° |
| 2026-05-04 22:52 | 53.15842 | 8.83159 | 33465 ft | 463 kts | 4° |
| 2026-05-04 22:53 | 53.19023 | 8.83877 | 32922 ft | 460 kts | 4° |
| 2026-05-04 22:53 | 53.22189 | 8.84592 | 32399 ft | 457 kts | 4° |
| 2026-05-04 22:53 | 53.25328 | 8.85307 | 31887 ft | 454 kts | 4° |
| 2026-05-04 22:53 | 53.28444 | 8.86022 | 31384 ft | 451 kts | 4° |
| 2026-05-04 22:54 | 53.31544 | 8.86735 | 30884 ft | 448 kts | 4° |
| 2026-05-04 22:54 | 53.34608 | 8.87703 | 30396 ft | 449 kts | 13° |
| 2026-05-04 22:54 | 53.37542 | 8.89463 | 29911 ft | 449 kts | 21° |
| 2026-05-04 22:54 | 53.40408 | 8.91519 | 29382 ft | 446 kts | 21° |
| 2026-05-04 22:55 | 53.43214 | 8.93523 | 28902 ft | 442 kts | 21° |
| 2026-05-04 22:55 | 53.46031 | 8.95524 | 28449 ft | 439 kts | 21° |
| 2026-05-04 22:55 | 53.48832 | 8.97509 | 27885 ft | 434 kts | 21° |
| 2026-05-04 22:55 | 53.51596 | 8.99467 | 27334 ft | 429 kts | 21° |
| 2026-05-04 22:56 | 53.54266 | 9.01663 | 26783 ft | 426 kts | 30° |
| 2026-05-04 22:56 | 53.56700 | 9.04463 | 26230 ft | 422 kts | 35° |
| 2026-05-04 22:56 | 53.59074 | 9.07305 | 25610 ft | 416 kts | 34° |
| 2026-05-04 22:56 | 53.61426 | 9.10117 | 24951 ft | 411 kts | 34° |
| 2026-05-04 22:57 | 53.63741 | 9.12890 | 24300 ft | 406 kts | 34° |
| 2026-05-04 22:57 | 53.66032 | 9.15637 | 23645 ft | 401 kts | 34° |
| 2026-05-04 22:57 | 53.68286 | 9.18342 | 22922 ft | 396 kts | 34° |
| 2026-05-04 22:57 | 53.70519 | 9.21025 | 22202 ft | 391 kts | 34° |
| 2026-05-04 22:58 | 53.72714 | 9.23668 | 21509 ft | 386 kts | 34° |
| 2026-05-04 22:58 | 53.74894 | 9.26298 | 20836 ft | 382 kts | 34° |
| 2026-05-04 22:58 | 53.77038 | 9.28889 | 20184 ft | 377 kts | 34° |
| 2026-05-04 22:58 | 53.79057 | 9.31678 | 19544 ft | 374 kts | 45° |
| 2026-05-04 22:59 | 53.80665 | 9.35111 | 18852 ft | 371 kts | 59° |
| 2026-05-04 22:59 | 53.81777 | 9.39028 | 18158 ft | 368 kts | 73° |
| 2026-05-04 22:59 | 53.82362 | 9.42941 | 17464 ft | 363 kts | 81° |
| 2026-05-04 22:59 | 53.82859 | 9.47054 | 16779 ft | 360 kts | 81° |
| 2026-05-04 23:00 | 53.83361 | 9.51198 | 16109 ft | 357 kts | 80° |
| 2026-05-04 23:00 | 53.83858 | 9.55302 | 15472 ft | 354 kts | 80° |
| 2026-05-04 23:00 | 53.84351 | 9.59379 | 14852 ft | 351 kts | 80° |
| 2026-05-04 23:00 | 53.84837 | 9.63411 | 14242 ft | 348 kts | 80° |
| 2026-05-04 23:01 | 53.85315 | 9.67409 | 13627 ft | 345 kts | 80° |
| 2026-05-04 23:01 | 53.85786 | 9.71381 | 12968 ft | 342 kts | 80° |
| 2026-05-04 23:01 | 53.86252 | 9.75316 | 12335 ft | 339 kts | 80° |
| 2026-05-04 23:01 | 53.86655 | 9.79218 | 11696 ft | 334 kts | 88° |
| 2026-05-04 23:02 | 53.86531 | 9.83089 | 11077 ft | 327 kts | 99° |
| 2026-05-04 23:02 | 53.86265 | 9.86901 | 10448 ft | 325 kts | 99° |
| 2026-05-04 23:02 | 53.85999 | 9.90684 | 9833 ft | 321 kts | 99° |
| 2026-05-04 23:02 | 53.85733 | 9.94423 | 9151 ft | 319 kts | 99° |
| 2026-05-04 23:03 | 53.85466 | 9.98126 | 8506 ft | 315 kts | 99° |
| 2026-05-04 23:03 | 53.85210 | 10.01703 | 8331 ft | 295 kts | 99° |
| 2026-05-04 23:03 | 53.84973 | 10.05055 | 8079 ft | 280 kts | 100° |
| 2026-05-04 23:03 | 53.84744 | 10.08257 | 7628 ft | 275 kts | 100° |
| 2026-05-04 23:04 | 53.84518 | 10.11418 | 7435 ft | 267 kts | 100° |
| 2026-05-04 23:04 | 53.84291 | 10.14563 | 7335 ft | 271 kts | 100° |
| 2026-05-04 23:04 | 53.84292 | 10.17745 | 7191 ft | 272 kts | 82° |
| 2026-05-04 23:04 | 53.84879 | 10.20782 | 7045 ft | 272 kts | 61° |
| 2026-05-04 23:05 | 53.85972 | 10.23370 | 6898 ft | 270 kts | 47° |
| 2026-05-04 23:05 | 53.87185 | 10.25798 | 6763 ft | 270 kts | 47° |
| 2026-05-04 23:05 | 53.88386 | 10.28227 | 6612 ft | 269 kts | 47° |
| 2026-05-04 23:05 | 53.89463 | 10.30814 | 6472 ft | 270 kts | 68° |
| 2026-05-04 23:06 | 53.89709 | 10.33912 | 6360 ft | 265 kts | 102° |
| 2026-05-04 23:06 | 53.89023 | 10.36721 | 6232 ft | 255 kts | 134° |
| 2026-05-04 23:06 | 53.87704 | 10.38544 | 5987 ft | 238 kts | 163° |
| 2026-05-04 23:06 | 53.86156 | 10.39092 | 5685 ft | 222 kts | 189° |
| 2026-05-04 23:07 | 53.84703 | 10.38548 | 5396 ft | 212 kts | 205° |
| 2026-05-04 23:07 | 53.83309 | 10.37747 | 5111 ft | 209 kts | 205° |
| 2026-05-04 23:07 | 53.82025 | 10.36693 | 4836 ft | 202 kts | 218° |
| 2026-05-04 23:07 | 53.80964 | 10.35186 | 4589 ft | 194 kts | 231° |
| 2026-05-04 23:08 | 53.80120 | 10.33501 | 4530 ft | 182 kts | 233° |
| 2026-05-04 23:08 | 53.79314 | 10.31932 | 4482 ft | 172 kts | 232° |
| 2026-05-04 23:08 | 53.78542 | 10.30412 | 4413 ft | 170 kts | 233° |
| 2026-05-04 23:08 | 53.77784 | 10.28880 | 4365 ft | 169 kts | 233° |
| 2026-05-04 23:09 | 53.77035 | 10.27352 | 4226 ft | 168 kts | 233° |
| 2026-05-04 23:09 | 53.76302 | 10.25852 | 4033 ft | 167 kts | 233° |
| 2026-05-04 23:09 | 53.75559 | 10.24333 | 3821 ft | 168 kts | 233° |
| 2026-05-04 23:09 | 53.74806 | 10.22791 | 3598 ft | 168 kts | 233° |
| 2026-05-04 23:10 | 53.74071 | 10.21288 | 3380 ft | 168 kts | 233° |
| 2026-05-04 23:10 | 53.73330 | 10.19775 | 3198 ft | 163 kts | 234° |
| 2026-05-04 23:10 | 53.72622 | 10.18331 | 2936 ft | 156 kts | 234° |
| 2026-05-04 23:10 | 53.71951 | 10.16962 | 2726 ft | 147 kts | 234° |
| 2026-05-04 23:11 | 53.71326 | 10.15685 | 2544 ft | 136 kts | 234° |
| 2026-05-04 23:11 | 53.70743 | 10.14497 | 2367 ft | 128 kts | 234° |
| 2026-05-04 23:11 | 53.70187 | 10.13364 | 2213 ft | 123 kts | 235° |
| 2026-05-04 23:11 | 53.69646 | 10.12260 | 2041 ft | 121 kts | 235° |
| 2026-05-04 23:12 | 53.69111 | 10.11170 | 1874 ft | 120 kts | 235° |
| 2026-05-04 23:12 | 53.68579 | 10.10085 | 1718 ft | 120 kts | 235° |
| 2026-05-04 23:12 | 53.68045 | 10.08999 | 1546 ft | 122 kts | 234° |
| 2026-05-04 23:12 | 53.67512 | 10.07908 | 1384 ft | 120 kts | 234° |
| 2026-05-04 23:13 | 53.66979 | 10.06822 | 1144 ft | 120 kts | 234° |
| 2026-05-04 23:13 | 53.66447 | 10.05749 | 915 ft | 121 kts | 233° |
| 2026-05-04 23:13 | 53.65921 | 10.04660 | 769 ft | 122 kts | 233° |
| 2026-05-04 23:13 | 53.65358 | 10.03566 | 653 ft | 125 kts | 232° |
| 2026-05-04 23:14 | 53.64806 | 10.02422 | 495 ft | 128 kts | 234° |
| 2026-05-04 23:14 | 53.64237 | 10.01261 | 307 ft | 129 kts | 234° |
| 2026-05-04 23:14 | 53.63664 | 10.00096 | 124 ft | 130 kts | 233° |
| 2026-05-04 23:14 | 53.63115 | 9.98964 | 54 ft | 112 kts | 231° |
| 2026-05-04 23:15 | 53.62707 | 9.98158 | 50 ft | 66 kts | 231° |
| 2026-05-04 23:15 | 53.62509 | 9.97791 | 47 ft | 24 kts | 197° |
| 2026-05-04 23:15 | 53.62428 | 9.97938 | 50 ft | 19 kts | 79° |
| 2026-05-04 23:15 | 53.62480 | 9.98135 | 50 ft | 19 kts | 53° |
| 2026-05-04 23:16 | 53.62564 | 9.98309 | 51 ft | 20 kts | 51° |
| 2026-05-04 23:16 | 53.62656 | 9.98483 | 51 ft | 20 kts | 49° |
| 2026-05-04 23:16 | 53.62718 | 9.98606 | 51 ft | 21 kts | 50° |
| 2026-05-04 23:16 | 53.62814 | 9.98803 | 50 ft | 22 kts | 51° |
| 2026-05-04 23:17 | 53.62913 | 9.99011 | 50 ft | 23 kts | 50° |
| 2026-05-04 23:17 | 53.63018 | 9.99224 | 51 ft | 24 kts | 50° |
| 2026-05-04 23:17 | 53.63121 | 9.99453 | 50 ft | 25 kts | 55° |
| 2026-05-04 23:17 | 53.63230 | 9.99688 | 50 ft | 26 kts | 50° |
| 2026-05-04 23:18 | 53.63352 | 9.99910 | 51 ft | 26 kts | 49° |
| 2026-05-04 23:18 | 53.63424 | 10.00144 | 49 ft | 21 kts | 122° |
| 2026-05-04 23:18 | 53.63297 | 10.00243 | 51 ft | 20 kts | 172° |
| 2026-05-04 23:18 | 53.63246 | 10.00319 | 51 ft | 9 kts | 86° |
| 2026-05-04 23:19 | 53.63246 | 10.00352 | 51 ft | 1 kts | 99° |
| 2026-05-04 23:19 | 53.63247 | 10.00359 | 51 ft | 0 kts | 86° |